.
WxDataArchive / Data Records for 2015-02-08
2015-02-07 February 2015 2015-02-09

Data Records for Sunday, 08 February 2015

Time	Temp	Chill	HIndex	Humid	Dewpt	 Wind 	HiWind	WindDir	Rain 	Barom
-----	----	-----	------	-----	-----	------	------	-------	-----	-----
00:00	32.2	32.2	32.2	91	29.9	0	0	---	0.00	29.696 
00:05	32.2	32.2	32.2	91	29.9	0	0	---	0.00	29.696 
00:10	32.2	32.2	32.2	91	29.9	0	0	---	0.00	29.696 
00:15	32.2	32.2	32.2	91	29.9	0	0	---	0.00	29.693 
00:20	32.2	32.2	32.2	92	30.1	0	0	---	0.00	29.693 
00:25	32.4	32.4	32.4	92	30.3	0	0	---	0.00	29.693 
00:30	32.5	32.5	32.5	92	30.4	0	0	---	0.00	29.680 
00:35	32.8	32.8	32.8	92	30.7	0	0	---	0.00	29.680 
00:40	33.1	33.1	33.1	92	31.0	0	0	---	0.00	29.680 
00:45	33.4	33.4	33.4	92	31.3	0	0	---	0.00	29.677 
00:50	33.5	33.5	33.5	92	31.4	0	0	---	0.00	29.677 
00:55	34.0	34.0	34.0	92	31.9	0	0	---	0.00	29.677 
01:00	34.4	34.4	34.4	92	32.3	0	0	---	0.00	29.668 
01:05	34.9	34.9	34.9	92	32.8	0	0	---	0.00	29.668 
01:10	35.6	35.6	35.6	93	33.8	0	1	90	0.00	29.668 
01:15	36.2	36.2	36.2	93	34.4	0	1	90	0.00	29.661 
01:20	36.8	36.8	36.8	92	34.7	0	1	90	0.00	29.661 
01:25	37.2	37.2	37.2	92	35.1	0	1	90	0.00	29.661 
01:30	37.6	37.6	37.6	92	35.5	0	0	---	0.00	29.654 
01:35	38.3	38.3	38.3	92	36.2	0	1	90	0.00	29.654 
01:40	38.9	38.9	38.9	91	36.5	0	2	90	0.00	29.654 
01:45	39.5	39.5	39.5	90	36.8	0	1	90	0.00	29.650 
01:50	40.1	40.1	40.1	89	37.1	0	2	90	0.00	29.650 
01:55	40.5	40.5	40.5	87	36.9	1	3	90	0.00	29.650 
02:00	40.8	40.8	40.8	85	36.6	0	2	90	0.00	29.655 
02:05	41.1	41.1	41.1	84	36.6	0	1	90	0.00	29.655 
02:10	41.2	41.2	41.2	84	36.7	0	2	90	0.00	29.655 
02:15	41.5	41.5	41.5	83	36.7	0	1	90	0.00	29.649 
02:20	41.8	41.8	41.8	83	37.0	1	3	90	0.01	29.649 
02:25	42.2	42.2	42.2	82	37.1	1	6	90	0.00	29.649 
02:30	42.5	42.5	42.5	81	37.1	0	3	225	0.00	29.643 
02:35	42.8	42.8	42.8	81	37.4	0	3	225	0.00	29.643 
02:40	43.1	43.1	43.1	80	37.4	1	3	225	0.00	29.643 
02:45	43.3	43.3	43.3	80	37.6	1	3	225	0.01	29.643 
02:50	43.5	43.5	43.5	79	37.4	1	4	225	0.00	29.643 
02:55	43.8	43.8	43.8	79	37.7	1	4	225	0.00	29.643 
03:00	43.8	43.8	43.8	78	37.4	1	9	225	0.00	29.637 
03:05	43.8	43.8	43.8	78	37.4	1	5	248	0.00	29.637 
03:10	43.9	43.9	43.9	78	37.5	0	3	248	0.00	29.637 
03:15	44.1	44.1	44.1	78	37.7	0	3	248	0.01	29.632 
03:20	44.1	44.1	44.1	77	37.4	1	4	248	0.00	29.632 
03:25	44.1	44.1	44.1	77	37.4	1	6	248	0.00	29.632 
03:30	44.3	44.3	44.3	77	37.6	1	5	248	0.00	29.626 
03:35	44.5	44.5	44.5	77	37.7	1	5	248	0.00	29.626 
03:40	44.6	44.6	44.6	77	37.8	2	7	248	0.00	29.626 
03:45	44.6	44.6	44.6	76	37.5	1	4	248	0.01	29.626 
03:50	44.5	44.5	44.5	76	37.4	0	3	248	0.00	29.626 
03:55	44.2	44.2	44.2	77	37.5	1	4	248	0.00	29.626 
04:00	44.2	44.2	44.2	77	37.5	1	5	248	0.00	29.623 
04:05	44.2	44.2	44.2	77	37.5	1	4	248	0.00	29.623 
04:10	44.2	44.2	44.2	77	37.5	1	6	248	0.00	29.623 
04:15	44.2	44.2	44.2	77	37.5	1	6	248	0.00	29.622 
04:20	44.1	44.1	44.1	77	37.4	1	6	248	0.01	29.622 
04:25	44.1	44.1	44.1	77	37.4	1	3	248	0.00	29.622 
04:30	43.9	43.9	43.9	77	37.2	1	4	270	0.00	29.618 
04:35	43.8	43.8	43.8	78	37.4	1	5	248	0.00	29.618 
04:40	43.8	43.8	43.8	78	37.4	1	7	248	0.00	29.618 
04:45	43.8	43.8	43.8	78	37.4	1	3	248	0.00	29.613 
04:50	43.8	43.8	43.8	78	37.4	1	4	248	0.00	29.613 
04:55	43.6	43.6	43.6	78	37.2	1	5	270	0.00	29.613 
05:00	43.5	43.5	43.5	79	37.4	0	4	248	0.00	29.616 
05:05	43.5	43.5	43.5	79	37.4	1	3	248	0.00	29.616 
05:10	43.6	43.6	43.6	79	37.5	1	5	248	0.00	29.616 
05:15	43.6	43.6	43.6	79	37.5	1	5	270	0.00	29.623 
05:20	43.6	43.6	43.6	79	37.5	1	3	270	0.00	29.623 
05:25	43.5	43.5	43.5	79	37.4	0	2	248	0.00	29.623 
05:30	43.3	43.3	43.3	79	37.2	0	3	248	0.00	29.624 
05:35	43.2	43.2	43.2	80	37.5	0	4	248	0.00	29.624 
05:40	43.1	43.1	43.1	80	37.4	0	2	248	0.00	29.624 
05:45	43.1	43.1	43.1	80	37.4	0	3	248	0.00	29.623 
05:50	42.9	42.9	42.9	80	37.2	0	2	248	0.00	29.623 
05:55	42.8	42.8	42.8	81	37.4	0	2	248	0.00	29.623 
06:00	42.9	42.9	42.9	81	37.5	1	4	248	0.00	29.622 
06:05	42.9	42.9	42.9	81	37.5	0	2	248	0.00	29.622 
06:10	42.9	42.9	42.9	81	37.5	0	2	248	0.00	29.622 
06:15	42.8	42.8	42.8	81	37.4	0	3	248	0.00	29.627 
06:20	42.8	42.8	42.8	81	37.4	0	2	248	0.00	29.627 
06:25	42.8	42.8	42.8	81	37.4	1	3	248	0.00	29.627 
06:30	42.8	42.8	42.8	81	37.4	0	2	248	0.00	29.628 
06:35	42.6	42.6	42.6	81	37.2	0	2	248	0.00	29.628 
06:40	42.5	42.5	42.5	81	37.1	0	1	248	0.00	29.628 
06:45	42.5	42.5	42.5	82	37.4	0	2	248	0.00	29.628 
06:50	42.5	42.5	42.5	82	37.4	0	2	248	0.00	29.628 
06:55	42.3	42.3	42.3	82	37.2	0	1	248	0.00	29.628 
07:00	42.3	42.3	42.3	82	37.2	0	2	248	0.00	29.630 
07:05	42.2	42.2	42.2	82	37.1	0	2	248	0.00	29.630 
07:10	42.2	42.2	42.2	83	37.4	0	3	248	0.00	29.630 
07:15	42.2	42.2	42.2	83	37.4	0	1	248	0.00	29.635 
07:20	42.1	42.1	42.1	83	37.3	0	1	248	0.00	29.635 
07:25	41.9	41.9	41.9	83	37.1	0	1	248	0.00	29.635 
07:30	41.9	41.9	41.9	83	37.1	0	1	248	0.00	29.633 
07:35	41.8	41.8	41.8	83	37.0	0	0	---	0.00	29.633 
07:40	41.8	41.8	41.8	84	37.3	0	2	248	0.00	29.633 
07:45	41.8	41.8	41.8	84	37.3	0	1	248	0.00	29.634 
07:50	41.6	41.6	41.6	84	37.1	0	1	248	0.00	29.634 
07:55	41.5	41.5	41.5	84	37.0	0	1	248	0.00	29.634 
08:00	41.5	41.5	41.5	84	37.0	0	1	248	0.00	29.638 
08:05	41.5	41.5	41.5	84	37.0	0	2	248	0.00	29.638 
08:10	41.5	41.5	41.5	84	37.0	0	2	248	0.00	29.638 
08:15	41.6	41.6	41.6	84	37.1	0	1	248	0.00	29.641 
08:20	41.6	41.6	41.6	84	37.1	0	1	248	0.00	29.641 
08:25	41.6	41.6	41.6	84	37.1	0	1	248	0.00	29.641 
08:30	41.6	41.6	41.6	85	37.4	0	1	248	0.00	29.645 
08:35	41.8	41.8	41.8	84	37.3	0	1	248	0.00	29.645 
08:40	41.8	41.8	41.8	84	37.3	0	1	248	0.00	29.645 
08:45	41.8	41.8	41.8	84	37.3	0	1	248	0.00	29.645 
08:50	41.9	41.9	41.9	84	37.4	0	1	248	0.00	29.645 
08:55	42.1	42.1	42.1	84	37.6	0	3	248	0.00	29.645 
09:00	42.2	42.2	42.2	84	37.7	0	2	248	0.00	29.648 
09:05	42.3	42.3	42.3	84	37.8	0	2	248	0.00	29.648 
09:10	42.5	42.5	42.5	84	38.0	0	1	248	0.00	29.648 
09:15	42.8	42.8	42.8	83	38.0	1	4	248	0.00	29.649 
09:20	42.9	42.9	42.9	83	38.1	0	3	248	0.00	29.649 
09:25	43.2	43.2	43.2	83	38.4	0	3	248	0.00	29.649 
09:30	43.3	43.3	43.3	82	38.2	0	2	270	0.00	29.641 
09:35	43.5	43.5	43.5	81	38.1	0	3	270	0.00	29.641 
09:40	43.8	43.8	43.8	81	38.4	1	3	248	0.00	29.641 
09:45	44.1	44.1	44.1	81	38.6	0	3	248	0.00	29.648 
09:50	44.5	44.5	44.5	80	38.7	0	2	248	0.00	29.648 
09:55	44.8	44.8	44.8	79	38.7	1	3	248	0.00	29.648 
10:00	44.9	44.9	44.9	79	38.8	1	5	248	0.00	29.647 
10:05	45.1	45.1	45.1	79	39.0	1	4	270	0.00	29.647 
10:10	45.2	45.2	45.2	78	38.8	0	2	270	0.00	29.647 
10:15	45.5	45.5	45.5	78	39.0	1	4	270	0.00	29.645 
10:20	45.8	45.8	45.8	77	39.0	1	3	270	0.00	29.645 
10:25	46.1	46.1	46.1	77	39.3	0	2	270	0.00	29.645 
10:30	46.2	46.2	46.2	76	39.1	1	4	270	0.00	29.645 
10:35	46.4	46.4	46.4	76	39.3	2	5	270	0.00	29.645 
10:40	46.2	46.2	46.2	76	39.1	1	5	248	0.00	29.645 
10:45	46.2	46.2	46.2	76	39.1	1	3	270	0.00	29.652 
10:50	46.2	46.2	46.2	76	39.1	1	2	248	0.00	29.652 
10:55	46.2	46.2	46.2	76	39.1	1	3	248	0.00	29.652 
11:00	46.4	46.4	46.4	76	39.3	1	3	248	0.00	29.649 
11:05	46.7	46.7	46.7	76	39.5	0	2	248	0.00	29.649 
11:10	47.0	47.0	47.0	75	39.5	1	4	248	0.00	29.649 
11:15	47.1	47.1	47.1	75	39.6	1	3	248	0.00	29.649 
11:20	47.3	47.3	47.3	74	39.4	0	3	248	0.00	29.649 
11:25	47.3	47.3	47.3	75	39.8	1	4	248	0.00	29.649 
11:30	47.3	47.3	47.3	74	39.4	1	3	248	0.00	29.653 
11:35	47.1	47.1	47.1	75	39.6	1	4	248	0.00	29.653 
11:40	47.1	47.1	47.1	75	39.6	1	4	270	0.00	29.653 
11:45	47.1	47.1	47.1	75	39.6	1	4	270	0.00	29.655 
11:50	47.3	47.3	47.3	75	39.8	1	6	270	0.00	29.655 
11:55	47.6	47.6	47.6	75	40.1	1	5	248	0.00	29.655 
12:00	47.9	47.9	47.9	74	40.0	1	4	248	0.00	29.660 
12:05	48.0	48.0	48.0	74	40.1	1	4	248	0.00	29.660 
12:10	48.3	48.3	48.3	73	40.1	1	5	248	0.00	29.660 
12:15	48.3	48.3	48.3	73	40.1	1	2	270	0.00	29.659 
12:20	48.2	48.2	48.2	73	40.0	1	3	270	0.00	29.659 
12:25	47.9	47.9	47.9	73	39.7	1	4	248	0.00	29.659 
12:30	47.7	47.7	47.7	74	39.8	1	3	270	0.00	29.655 
12:35	47.6	47.6	47.6	74	39.7	1	3	270	0.00	29.655 
12:40	47.4	47.4	47.4	75	39.9	2	6	270	0.00	29.655 
12:45	47.3	47.3	47.3	76	40.1	2	4	270	0.00	29.660 
12:50	47.3	47.3	47.3	76	40.1	1	4	270	0.00	29.660 
12:55	47.3	47.3	47.3	76	40.1	1	3	248	0.00	29.660 
13:00	47.3	47.3	47.3	75	39.8	2	4	248	0.00	29.657 
13:05	47.1	47.1	47.1	75	39.6	1	4	248	0.00	29.657 
13:10	47.0	47.0	47.0	76	39.8	2	4	292	0.00	29.657 
13:15	47.0	47.0	47.0	76	39.8	2	4	270	0.00	29.646 
13:20	47.0	47.0	47.0	76	39.8	1	2	248	0.00	29.646 
13:25	47.0	47.0	47.0	75	39.5	1	5	248	0.00	29.646 
13:30	47.0	47.0	47.0	76	39.8	1	3	292	0.00	29.649 
13:35	47.0	47.0	47.0	76	39.8	1	3	270	0.00	29.649 
13:40	47.0	47.0	47.0	76	39.8	1	3	270	0.00	29.649 
13:45	47.1	47.1	47.1	76	39.9	1	3	270	0.00	29.649 
13:50	47.0	47.0	47.0	76	39.8	1	3	270	0.00	29.649 
13:55	47.0	47.0	47.0	76	39.8	1	4	270	0.00	29.649 
14:00	47.0	47.0	47.0	75	39.5	1	2	270	0.00	29.647 
14:05	47.0	47.0	47.0	75	39.5	1	3	270	0.00	29.647 
14:10	46.8	46.8	46.8	75	39.3	1	2	270	0.00	29.647 
14:15	46.8	46.8	46.8	75	39.3	0	1	270	0.00	29.649 
14:20	46.7	46.7	46.7	75	39.2	1	3	270	0.00	29.649 
14:25	46.5	46.5	46.5	76	39.3	1	3	270	0.00	29.649 
14:30	46.4	46.4	46.4	76	39.3	1	3	270	0.00	29.646 
14:35	46.2	46.2	46.2	76	39.1	0	2	270	0.00	29.646 
14:40	46.1	46.1	46.1	76	39.0	0	2	270	0.00	29.646 
14:45	46.0	46.0	46.0	76	38.9	0	1	270	0.00	29.652 
14:50	45.8	45.8	45.8	77	39.0	0	2	270	0.00	29.652 
14:55	45.7	45.7	45.7	77	38.9	0	2	270	0.00	29.652 
15:00	45.7	45.7	45.7	77	38.9	0	3	270	0.00	29.658 
15:05	45.5	45.5	45.5	77	38.7	0	1	270	0.00	29.658 
15:10	45.4	45.4	45.4	77	38.6	0	1	270	0.00	29.658 
15:15	45.4	45.4	45.4	77	38.6	0	1	270	0.00	29.661 
15:20	45.4	45.4	45.4	77	38.6	0	2	270	0.00	29.661 
15:25	45.4	45.4	45.4	77	38.6	0	2	270	0.00	29.661 
15:30	45.4	45.4	45.4	77	38.6	1	3	270	0.00	29.668 
15:35	45.5	45.5	45.5	77	38.7	0	1	270	0.00	29.668 
15:40	45.8	45.8	45.8	77	39.0	0	2	270	0.00	29.668 
15:45	45.8	45.8	45.8	76	38.7	1	2	270	0.00	29.669 
15:50	45.7	45.7	45.7	76	38.6	0	2	270	0.00	29.669 
15:55	45.5	45.5	45.5	76	38.4	0	2	270	0.00	29.669 
16:00	45.4	45.4	45.4	76	38.3	0	2	270	0.00	29.680 
16:05	45.2	45.2	45.2	77	38.4	0	2	270	0.00	29.680 
16:10	44.9	44.9	44.9	77	38.1	0	1	270	0.00	29.680 
16:15	44.8	44.8	44.8	77	38.0	0	2	270	0.00	29.686 
16:20	44.6	44.6	44.6	77	37.8	0	1	270	0.00	29.686 
16:25	44.6	44.6	44.6	78	38.2	0	1	270	0.00	29.686 
16:30	44.6	44.6	44.6	78	38.2	0	1	270	0.00	29.677 
16:35	44.5	44.5	44.5	78	38.1	0	2	270	0.00	29.677 
16:40	44.5	44.5	44.5	78	38.1	0	1	270	0.00	29.677 
16:45	44.3	44.3	44.3	78	37.9	0	0	---	0.00	29.673 
16:50	44.3	44.3	44.3	78	37.9	0	1	270	0.00	29.673 
16:55	44.5	44.5	44.5	78	38.1	0	1	270	0.00	29.673 
17:00	44.6	44.6	44.6	78	38.2	0	1	270	0.00	29.671 
17:05	44.6	44.6	44.6	77	37.8	0	3	270	0.00	29.671 
17:10	44.5	44.5	44.5	77	37.7	0	0	---	0.00	29.671 
17:15	44.3	44.3	44.3	77	37.6	0	0	---	0.00	29.686 
17:20	44.2	44.2	44.2	77	37.5	0	1	270	0.00	29.686 
17:25	43.9	43.9	43.9	78	37.5	0	0	---	0.00	29.686 
17:30	43.8	43.8	43.8	78	37.4	0	0	---	0.00	29.691 
17:35	43.5	43.5	43.5	78	37.1	0	0	---	0.00	29.691 
17:40	43.2	43.2	43.2	79	37.1	0	0	---	0.00	29.691 
17:45	42.9	42.9	42.9	79	36.8	0	0	---	0.00	29.694 
17:50	42.8	42.8	42.8	80	37.1	0	0	---	0.00	29.694 
17:55	42.6	42.6	42.6	80	36.9	0	0	---	0.00	29.694 
18:00	42.5	42.5	42.5	81	37.1	0	0	---	0.00	29.706 
18:05	42.3	42.3	42.3	81	36.9	0	0	---	0.00	29.706 
18:10	42.3	42.3	42.3	81	36.9	0	0	---	0.00	29.706 
18:15	42.2	42.2	42.2	81	36.8	0	0	---	0.00	29.719 
18:20	42.1	42.1	42.1	81	36.7	0	2	270	0.00	29.719 
18:25	42.1	42.1	42.1	82	37.0	0	1	270	0.00	29.719 
18:30	42.1	42.1	42.1	82	37.0	0	1	270	0.00	29.728 
18:35	41.9	41.9	41.9	82	36.8	0	2	270	0.00	29.728 
18:40	41.8	41.8	41.8	82	36.7	0	1	270	0.00	29.728 
18:45	41.6	41.6	41.6	82	36.5	0	0	---	0.00	29.737 
18:50	41.5	41.5	41.5	83	36.7	0	1	270	0.00	29.737 
18:55	41.3	41.3	41.3	83	36.5	0	1	270	0.00	29.737 
19:00	41.2	41.2	41.2	84	36.7	0	2	270	0.00	29.755 
19:05	41.1	41.1	41.1	84	36.6	0	1	270	0.00	29.755 
19:10	40.9	40.9	40.9	84	36.4	0	2	270	0.00	29.755 
19:15	40.8	40.8	40.8	85	36.6	0	2	270	0.00	29.761 
19:20	40.6	40.6	40.6	85	36.4	1	4	315	0.00	29.761 
19:25	40.5	40.5	40.5	86	36.6	2	6	338	0.00	29.761 
19:30	39.8	39.8	39.8	85	35.7	1	4	338	0.00	29.770 
19:35	38.5	38.5	38.5	84	34.1	2	5	338	0.00	29.770 
19:40	37.6	37.6	37.6	85	33.5	1	4	0	0.00	29.770 
19:45	36.9	36.9	36.9	86	33.1	1	6	0	0.00	29.784 
19:50	36.5	36.5	36.5	87	33.0	0	3	158	0.00	29.784 
19:55	36.2	36.2	36.2	87	32.7	0	3	112	0.00	29.784 
20:00	35.9	35.9	35.9	88	32.7	0	1	112	0.00	29.778 
20:05	35.8	35.8	35.8	88	32.6	0	3	112	0.00	29.778 
20:10	35.6	35.6	35.6	89	32.7	0	2	112	0.00	29.778 
20:15	35.5	35.5	35.5	89	32.6	0	1	112	0.00	29.789 
20:20	35.5	35.5	35.5	89	32.6	0	3	112	0.00	29.789 
20:25	35.3	35.3	35.3	89	32.4	0	1	112	0.00	29.789 
20:30	35.3	35.3	35.3	90	32.7	0	2	112	0.00	29.805 
20:35	35.2	35.2	35.2	90	32.6	1	3	68	0.00	29.805 
20:40	35.2	35.2	35.2	90	32.6	1	6	45	0.00	29.805 
20:45	35.0	35.0	35.0	90	32.4	0	2	68	0.00	29.810 
20:50	34.9	34.9	34.9	90	32.3	1	2	68	0.00	29.810 
20:55	34.9	34.9	34.9	90	32.3	0	2	68	0.00	29.810 
21:00	34.7	34.7	34.7	90	32.1	1	4	68	0.00	29.819 
21:05	34.7	34.7	34.7	90	32.1	1	3	68	0.00	29.819 
21:10	34.6	34.6	34.6	91	32.2	2	4	68	0.00	29.819 
21:15	34.4	34.4	34.4	90	31.8	1	4	90	0.00	29.820 
21:20	34.3	34.3	34.3	90	31.7	1	3	112	0.00	29.820 
21:25	34.0	34.0	34.0	91	31.7	1	3	45	0.00	29.820 
21:30	33.8	33.8	33.8	91	31.5	1	4	112	0.00	29.821 
21:35	33.5	33.5	33.5	91	31.2	1	3	68	0.00	29.821 
21:40	33.4	33.4	33.4	91	31.1	1	4	338	0.00	29.821 
21:45	33.2	33.2	33.2	91	30.9	0	3	45	0.00	29.832 
21:50	33.1	33.1	33.1	91	30.8	0	2	45	0.00	29.832 
21:55	33.1	33.1	33.1	91	30.8	1	4	45	0.00	29.832 
22:00	32.8	32.8	32.8	91	30.5	1	3	45	0.00	29.840 
22:05	32.7	32.7	32.7	91	30.4	1	4	68	0.00	29.840 
22:10	32.5	32.5	32.5	91	30.2	1	3	68	0.00	29.840 
22:15	32.4	32.4	32.4	91	30.1	1	5	68	0.00	29.838 
22:20	32.2	32.2	32.2	92	30.1	1	3	0	0.00	29.838 
22:25	32.2	32.2	32.2	92	30.1	1	3	22	0.00	29.838 
22:30	32.1	32.1	32.1	92	30.0	0	3	22	0.00	29.843 
22:35	31.9	31.9	31.9	92	29.8	1	5	68	0.00	29.843 
22:40	31.8	31.8	31.8	92	29.7	1	4	68	0.00	29.843 
22:45	31.6	31.6	31.6	92	29.5	1	4	22	0.00	29.851 
22:50	31.5	31.5	31.5	92	29.4	1	5	112	0.00	29.851 
22:55	31.3	31.3	31.3	92	29.3	1	3	0	0.00	29.851 
23:00	31.3	31.3	31.3	92	29.3	1	4	45	0.00	29.853 
23:05	31.2	31.2	31.2	91	28.9	1	3	45	0.00	29.853 
23:10	31.0	31.0	31.0	91	28.7	1	4	0	0.00	29.853 
23:15	31.0	31.0	31.0	91	28.7	1	4	112	0.00	29.861 
23:20	30.9	30.9	30.9	91	28.6	1	3	90	0.00	29.861 
23:25	30.9	30.9	30.9	91	28.6	0	3	90	0.00	29.861 
23:30	30.7	30.7	30.7	91	28.4	1	4	112	0.00	29.863 
23:35	30.7	30.7	30.7	90	28.1	1	4	68	0.00	29.863 
23:40	30.6	30.6	30.6	90	28.0	1	5	90	0.00	29.863 
23:45	30.6	30.6	30.6	90	28.0	1	5	45	0.00	29.868 
23:50	30.4	30.4	30.4	89	27.6	2	6	338	0.00	29.868 
23:55	30.4	30.4	30.4	89	27.6	1	4	45	0.00	29.868 

CoCoRaHS
IN-AL-39
A2 Web Hosting
Creative Commons License
GoDaddy
search engine by freefind advanced

loaded 2018-11-15 05:10:50 • last modified 2010-11-18 10:43:29
Privacy PolicyDisclaimer
• wx.awcolley.com is powered by PmWiki v.2002016 •
• all content (unless otherwise noted) © 2018 A W Colley